Huvudsida
METAR-TAF:

METAR-TAF

Flygplatser :

Damascus Int. Airport

Damaskus, Syrien

latitud: 33-25N, longitud: 036-31E, höjd: 608 m

Aktuellt väderrapport

Denna rapport gjordes för 8 minuter sedan, klockan 14:00 UTC
Vind 16 kt från syd/sydväst
Temperatur 39°C
Fuktighet 11%
Tryck 1009 hPa
Sikt 10 km eller mer
Inga moln under 1 500 m eller inga cumulonimbus

METAR: OSDI 241400Z 20016KT CAVOK 39/03 Q1009

Tid: 17:08 (14:08 UTC)

Väderprognos

Denna rapport gjordes för 9 timmar och 8 minuter sedan, klockan 05:00 UTC
Prognos gäller från 24 kl. 06 UTC till 25 kl. 12 UTC
Vind 10 kt från sydväst
Sikt 10 km eller mer
Inga moln under 1 500 m eller inga cumulonimbus
Temporärt
från 24 kl. 09 UTC till 24 kl. 18 UTC
Vind 10 kt från väst i byarna ända upp till 20 kt
Sikt 10 km eller mer
Få moln på en höjd av 3000 ft

TAF: OSDI 240500Z 2406/2512 22010KT CAVOK TEMPO 2409/2418 28010G20KT 9999 FEW030

Aktuella väderrapporter och prognoser från 4000 flygplatser (METAR- och TAF-rapporter).

De tillgängliga stationerna syns som gula och röda prickar på kartan.

För musen över prickarna för att se namnen på stationerna.

Klicka sedan för att få väderrapporter och prognoser.

För att ändra kartan: Klicka på de gröna knapparna med ett svart kors på för att zooma in; den gröna knappen med ett streck på för att zooma ut; eller på de gröna pilarna för angränsande kartor.


METAR-TAF: